createdAt,value
2022-12-01T00:04:49.968Z,0
2022-12-01T00:09:50.135Z,0
2022-12-01T00:14:49.939Z,0
2022-12-01T00:19:50.122Z,0
2022-12-01T00:24:49.919Z,0
2022-12-01T00:29:50.215Z,0
2022-12-01T00:34:50.003Z,0
2022-12-01T00:39:50.222Z,0
2022-12-01T00:44:50.019Z,0
2022-12-01T00:49:50.088Z,0
2022-12-01T00:54:49.890Z,0
2022-12-01T00:59:50.155Z,0
2022-12-01T01:04:49.961Z,0
2022-12-01T01:09:50.159Z,0
2022-12-01T01:14:50.107Z,0
2022-12-01T01:19:51.015Z,0
2022-12-01T01:24:50.144Z,0
2022-12-01T01:29:50.131Z,0
2022-12-01T01:34:49.943Z,0
2022-12-01T01:39:50.049Z,0
2022-12-01T01:44:49.944Z,0
2022-12-01T01:49:50.185Z,0
2022-12-01T01:54:49.919Z,0
2022-12-01T01:59:50.106Z,0
2022-12-01T02:14:50.016Z,0
2022-12-01T02:19:50.141Z,0
2022-12-01T02:24:49.972Z,0
2022-12-01T02:29:50.054Z,0
2022-12-01T02:34:49.933Z,0
2022-12-01T02:39:50.076Z,0
2022-12-01T02:44:49.967Z,0
2022-12-01T02:49:50.183Z,0
2022-12-01T02:54:49.953Z,0
2022-12-01T02:59:50.178Z,0
2022-12-01T03:04:50.102Z,0
2022-12-01T03:09:50.027Z,0
2022-12-01T03:14:50.123Z,0
2022-12-01T03:19:50.344Z,0
2022-12-01T03:24:49.930Z,0
2022-12-01T03:29:50.107Z,0
2022-12-01T03:34:49.971Z,0
2022-12-01T03:39:50.148Z,0
2022-12-01T03:44:49.962Z,0
2022-12-01T03:49:50.151Z,0
2022-12-01T03:54:50.046Z,0
2022-12-01T03:59:50.226Z,0
2022-12-01T04:04:49.931Z,0
2022-12-01T04:09:50.152Z,0
2022-12-01T04:14:50.038Z,0
2022-12-01T04:19:50.177Z,0
2022-12-01T04:24:50.447Z,0
2022-12-01T04:29:50.117Z,0
2022-12-01T04:34:49.957Z,0
2022-12-01T04:39:50.112Z,0
2022-12-01T04:44:49.961Z,0
2022-12-01T04:49:50.137Z,0
2022-12-01T04:54:49.990Z,0
2022-12-01T04:59:50.233Z,0
2022-12-01T05:04:49.960Z,0
2022-12-01T05:09:50.554Z,0
2022-12-01T05:14:50.036Z,0
2022-12-01T05:19:50.320Z,0
2022-12-01T05:24:49.953Z,0
2022-12-01T05:29:50.145Z,0
2022-12-01T05:34:50.071Z,0
2022-12-01T05:39:50.394Z,0
2022-12-01T05:44:50.033Z,0
2022-12-01T05:49:50.405Z,0
2022-12-01T05:54:50.004Z,0
2022-12-01T05:59:50.111Z,0
2022-12-01T06:04:49.953Z,0
2022-12-01T06:09:50.101Z,0
2022-12-01T06:14:49.967Z,0
2022-12-01T06:19:50.114Z,0
2022-12-01T06:24:49.972Z,0
2022-12-01T06:29:50.359Z,0
2022-12-01T06:34:50.081Z,0
2022-12-01T06:39:50.215Z,257
2022-12-01T06:44:49.953Z,257
2022-12-01T06:49:50.281Z,259
2022-12-01T06:54:50.038Z,261
2022-12-01T06:59:50.368Z,264
2022-12-01T07:04:50.062Z,270
2022-12-01T07:09:50.213Z,272
2022-12-01T07:14:50.065Z,271
2022-12-01T07:19:50.187Z,271
2022-12-01T07:24:49.992Z,290
2022-12-01T07:29:50.161Z,307
2022-12-01T07:34:49.988Z,309
2022-12-01T07:39:50.333Z,328
2022-12-01T07:44:50.008Z,342
2022-12-01T07:49:50.535Z,354
2022-12-01T07:54:49.998Z,364
2022-12-01T07:59:50.174Z,377
2022-12-01T08:04:49.993Z,391
2022-12-01T08:09:50.146Z,405
2022-12-01T08:14:50.057Z,422
2022-12-01T08:19:50.459Z,425
2022-12-01T08:24:50.010Z,431
2022-12-01T08:29:50.285Z,452
2022-12-01T08:34:53.427Z,489
2022-12-01T08:39:50.173Z,550
2022-12-01T08:44:50.045Z,631
2022-12-01T08:49:50.111Z,642
2022-12-01T08:54:50.122Z,610
2022-12-01T08:59:50.250Z,638
2022-12-01T09:04:50.007Z,638
2022-12-01T09:09:50.077Z,682
2022-12-01T09:14:50.066Z,804
2022-12-01T09:19:50.203Z,902
2022-12-01T09:24:49.959Z,866
2022-12-01T09:29:50.265Z,838
2022-12-01T09:34:49.983Z,894
2022-12-01T09:39:50.290Z,1037
2022-12-01T09:44:49.972Z,1155
2022-12-01T09:49:50.232Z,1186
2022-12-01T09:54:50.099Z,1166
2022-12-01T09:59:50.304Z,1207
2022-12-01T10:04:49.958Z,1250
2022-12-01T10:09:50.181Z,1340
2022-12-01T10:14:50.122Z,1488
2022-12-01T10:19:50.239Z,1081
2022-12-01T10:24:49.960Z,1050
2022-12-01T10:29:50.290Z,976
2022-12-01T10:34:50.063Z,1113
2022-12-01T10:39:50.186Z,1191
2022-12-01T10:44:50.004Z,1245
2022-12-01T10:49:50.142Z,1146
2022-12-01T10:54:50.033Z,1073
2022-12-01T10:59:50.268Z,961
2022-12-01T11:04:50.032Z,956
2022-12-01T11:09:50.352Z,1127
2022-12-01T11:14:50.027Z,1171
2022-12-01T11:19:50.252Z,888
2022-12-01T11:24:50.070Z,988
2022-12-01T11:29:50.339Z,908
2022-12-01T11:34:50.412Z,691
2022-12-01T11:39:50.119Z,774
2022-12-01T11:44:52.387Z,922
2022-12-01T11:49:50.298Z,919
2022-12-01T11:54:49.987Z,915
2022-12-01T11:59:50.356Z,880
2022-12-01T12:04:50.003Z,792
2022-12-01T12:09:50.233Z,720
2022-12-01T12:14:50.116Z,767
2022-12-01T12:20:08.014Z,689
2022-12-01T12:24:50.028Z,714
2022-12-01T12:29:50.108Z,645
2022-12-01T12:34:50.011Z,557
2022-12-01T12:39:50.270Z,543
2022-12-01T12:44:50.010Z,535
2022-12-01T12:49:50.309Z,519
2022-12-01T12:54:49.983Z,490
2022-12-01T12:59:50.292Z,475
2022-12-01T13:04:50.043Z,433
2022-12-01T13:09:50.231Z,388
2022-12-01T13:14:50.238Z,419
2022-12-01T13:19:50.098Z,373
2022-12-01T13:24:49.975Z,377
2022-12-01T13:29:50.156Z,396
2022-12-01T13:34:49.996Z,411
2022-12-01T13:39:50.178Z,393
2022-12-01T13:44:50.078Z,392
2022-12-01T13:49:50.345Z,387
2022-12-01T13:54:50.041Z,409
2022-12-01T13:59:50.306Z,412
2022-12-01T14:04:50.376Z,384
2022-12-01T14:09:50.031Z,373
2022-12-01T14:14:50.152Z,355
2022-12-01T14:19:50.133Z,350
2022-12-01T14:24:50.184Z,343
2022-12-01T14:29:50.033Z,332
2022-12-01T14:34:50.281Z,320
2022-12-01T14:39:50.001Z,310
2022-12-01T14:44:50.300Z,302
2022-12-01T14:49:50.018Z,298
2022-12-01T14:54:50.246Z,289
2022-12-01T14:59:50.085Z,286
2022-12-01T15:04:50.235Z,278
2022-12-01T15:09:50.021Z,271
2022-12-01T15:14:50.497Z,265
2022-12-01T15:19:50.360Z,263
2022-12-01T15:24:50.322Z,261
2022-12-01T15:29:50.212Z,257
2022-12-01T15:34:50.233Z,256
2022-12-01T15:39:50.036Z,0
2022-12-01T15:44:50.286Z,0
2022-12-01T15:49:50.098Z,0
2022-12-01T15:54:50.163Z,0
2022-12-01T15:59:50.008Z,0
2022-12-01T16:04:50.196Z,0
2022-12-01T16:09:50.047Z,0
2022-12-01T16:14:50.308Z,0
2022-12-01T16:19:50.040Z,0
2022-12-01T16:24:50.349Z,0
2022-12-01T16:29:50.036Z,0
2022-12-01T16:34:50.025Z,0
2022-12-01T16:39:50.069Z,0
2022-12-01T16:44:50.249Z,0
2022-12-01T16:49:50.044Z,0
2022-12-01T16:54:50.179Z,0
2022-12-01T16:59:50.013Z,0
2022-12-01T17:04:50.227Z,0
2022-12-01T17:09:50.085Z,0
2022-12-01T17:14:50.392Z,0
2022-12-01T17:19:50.117Z,0
2022-12-01T17:24:50.289Z,0
2022-12-01T17:29:50.019Z,0
2022-12-01T17:34:50.284Z,0
2022-12-01T17:39:50.044Z,0
2022-12-01T17:44:50.259Z,0
2022-12-01T17:49:50.079Z,0
2022-12-01T17:54:50.198Z,0
2022-12-01T17:59:50.078Z,0
2022-12-01T18:04:50.260Z,0
2022-12-01T18:09:50.044Z,0
2022-12-01T18:14:50.453Z,0
2022-12-01T18:19:50.045Z,0
2022-12-01T18:24:50.259Z,0
2022-12-01T18:29:50.022Z,0
2022-12-01T18:34:50.374Z,0
2022-12-01T18:39:50.169Z,0
2022-12-01T18:44:50.171Z,0
2022-12-01T18:49:50.057Z,0
2022-12-01T18:54:50.396Z,0
2022-12-01T18:59:50.115Z,0
2022-12-01T19:04:50.601Z,0
2022-12-01T19:09:50.186Z,0
2022-12-01T19:14:50.341Z,0
2022-12-01T19:19:50.003Z,0
2022-12-01T19:24:50.617Z,0
2022-12-01T19:29:50.057Z,0
2022-12-01T19:34:50.345Z,0
2022-12-01T19:39:50.065Z,0
2022-12-01T19:44:50.569Z,0
2022-12-01T19:49:50.162Z,0
2022-12-01T19:54:50.349Z,0
2022-12-01T19:59:50.051Z,0
2022-12-01T20:04:50.275Z,0
2022-12-01T20:09:50.416Z,0
2022-12-01T20:14:50.819Z,0
2022-12-01T20:19:50.173Z,0
2022-12-01T20:24:50.268Z,0
2022-12-01T20:29:50.128Z,0
2022-12-01T20:34:50.384Z,0
2022-12-01T20:39:50.087Z,0
2022-12-01T20:44:50.283Z,0
2022-12-01T20:49:53.019Z,0
2022-12-01T20:54:50.281Z,0
2022-12-01T20:59:50.091Z,0
2022-12-01T21:04:51.578Z,0
2022-12-01T21:09:50.058Z,0
2022-12-01T21:14:50.363Z,0
2022-12-01T21:19:50.090Z,0
2022-12-01T21:24:50.247Z,0
2022-12-01T21:29:50.132Z,0
2022-12-01T21:34:50.322Z,0
2022-12-01T21:39:50.142Z,0
2022-12-01T21:44:50.294Z,0
2022-12-01T21:49:50.227Z,0
2022-12-01T21:54:50.266Z,0
2022-12-01T21:59:50.059Z,0
2022-12-01T22:04:50.483Z,0
2022-12-01T22:09:50.046Z,0
2022-12-01T22:14:50.366Z,0
2022-12-01T22:19:50.159Z,0
2022-12-01T22:24:50.334Z,0
2022-12-01T22:29:50.076Z,0
2022-12-01T22:34:50.493Z,0
2022-12-01T22:39:50.039Z,0
2022-12-01T22:44:50.484Z,0
2022-12-01T22:49:50.049Z,0
2022-12-01T22:54:50.209Z,0
2022-12-01T22:59:50.170Z,0
2022-12-01T23:04:50.397Z,0
2022-12-01T23:09:50.108Z,0
2022-12-01T23:14:50.390Z,0
2022-12-01T23:19:50.080Z,0
2022-12-01T23:24:50.440Z,0
2022-12-01T23:29:50.079Z,0
2022-12-01T23:34:51.302Z,0
2022-12-01T23:39:50.091Z,0
2022-12-01T23:44:50.297Z,0
2022-12-01T23:49:50.077Z,0
2022-12-01T23:54:50.271Z,0
2022-12-01T23:59:50.089Z,0
